createdAt,value
2016-05-30T14:21:02.867Z,1375
2016-05-30T14:21:55.712Z,1415
2016-05-30T14:22:55.481Z,970
2016-05-30T14:23:54.859Z,865
2016-05-30T14:24:54.720Z,1355
2016-05-30T14:25:54.692Z,1365
2016-05-30T14:26:54.695Z,1335
2016-05-30T14:27:54.681Z,1290
2016-05-30T14:28:54.841Z,1240
2016-05-30T14:29:54.844Z,1195
2016-05-30T14:30:54.690Z,1130
2016-05-30T14:31:54.662Z,1110
2016-05-30T14:32:54.664Z,1190
2016-05-30T14:33:54.511Z,1155
2016-05-30T14:34:54.841Z,1135
2016-05-30T14:35:54.813Z,1265
2016-05-30T14:36:55.550Z,1230
2016-05-30T14:37:54.975Z,1245
2016-05-30T14:38:54.837Z,1250
2016-05-30T14:39:54.668Z,1210
2016-05-30T14:40:54.654Z,1185
2016-05-30T14:41:54.813Z,1215
2016-05-30T14:42:54.801Z,1220
2016-05-30T14:43:54.647Z,1170
2016-05-30T14:44:54.806Z,1175
2016-05-30T14:45:54.809Z,1145
2016-05-30T14:46:54.811Z,1115
2016-05-30T14:47:54.658Z,1070
2016-05-30T14:48:54.645Z,1085
2016-05-30T14:49:54.662Z,1120
2016-05-30T14:50:54.822Z,1090
2016-05-30T14:51:54.715Z,1090
2016-05-30T14:52:55.624Z,1085
2016-05-30T14:53:54.674Z,1050
2016-05-30T14:54:54.895Z,1035
2016-05-30T14:55:54.820Z,990
2016-05-30T14:56:54.806Z,1085
2016-05-30T14:57:54.809Z,1110
2016-05-30T14:58:54.672Z,1115
2016-05-30T14:59:54.815Z,1115
2016-05-30T15:00:54.817Z,1120
2016-05-30T15:01:54.680Z,1080
2016-05-30T15:02:54.667Z,1080
2016-05-30T15:03:54.825Z,1075
2016-05-30T15:04:54.813Z,1060
2016-05-30T15:05:54.830Z,970
2016-05-30T15:06:54.927Z,900
2016-05-30T15:07:58.571Z,900
2016-05-30T15:08:54.714Z,975
2016-05-30T15:09:54.795Z,1130
2016-05-30T15:10:56.626Z,1185
2016-05-30T15:11:54.722Z,1225
2016-05-30T15:12:54.849Z,1235
2016-05-30T15:13:54.540Z,1095
2016-05-30T15:14:54.902Z,855
2016-05-30T15:15:54.577Z,620
2016-05-30T15:16:54.720Z,495
2016-05-30T15:17:54.691Z,415
2016-05-30T15:18:54.865Z,365
2016-05-30T15:19:54.587Z,285
2016-05-30T15:20:54.700Z,250
2016-05-30T15:21:54.718Z,200
2016-05-30T15:23:01.298Z,180
2016-05-30T15:23:54.770Z,175
2016-05-30T15:24:56.194Z,170
2016-05-30T15:25:58.432Z,170
2016-05-30T15:26:54.872Z,165
2016-05-30T15:28:01.312Z,160
2016-05-30T15:28:54.612Z,145
2016-05-30T15:29:54.708Z,135
2016-05-30T15:30:54.695Z,125
2016-05-30T15:31:54.713Z,120
2016-05-30T15:32:54.592Z,120
2016-05-30T15:33:54.875Z,120
2016-05-30T15:34:54.737Z,115
2016-05-30T15:35:54.724Z,115
2016-05-30T15:36:54.867Z,120
2016-05-30T15:37:57.355Z,130
2016-05-30T15:38:54.608Z,135
2016-05-30T15:39:57.625Z,135
2016-05-30T15:40:55.535Z,140
2016-05-30T15:41:57.927Z,150
2016-05-30T15:42:54.712Z,165
2016-05-30T15:43:54.840Z,185
2016-05-30T15:44:54.671Z,240
2016-05-30T15:45:54.846Z,295
2016-05-30T15:46:54.535Z,195
2016-05-30T15:47:54.709Z,170
2016-05-30T15:48:54.822Z,155
2016-05-30T15:49:54.824Z,145
2016-05-30T15:50:54.671Z,140
2016-05-30T15:51:54.673Z,135
2016-05-30T15:52:56.848Z,140
2016-05-30T15:53:59.085Z,170
2016-05-30T15:54:54.979Z,230
2016-05-30T15:55:54.840Z,235
2016-05-30T15:56:54.828Z,240
2016-05-30T15:57:54.643Z,245
2016-05-30T15:58:54.817Z,250
2016-05-30T15:59:54.649Z,245
2016-05-30T16:00:54.807Z,255
2016-05-30T16:01:54.669Z,260
2016-05-30T16:02:54.656Z,265
2016-05-30T16:03:54.689Z,260
2016-05-30T16:04:54.630Z,260
2016-05-30T16:05:54.790Z,240
2016-05-30T16:06:54.777Z,225
2016-05-30T16:07:58.966Z,220
2016-05-30T16:08:57.219Z,215
2016-05-30T16:09:54.550Z,215
2016-05-30T16:10:56.334Z,210
2016-05-30T16:11:59.055Z,210
2016-05-30T16:12:54.746Z,210
2016-05-30T16:13:54.482Z,215
2016-05-30T16:14:54.736Z,220
2016-05-30T16:15:54.738Z,220
2016-05-30T16:16:54.725Z,215
2016-05-30T16:17:54.743Z,215
2016-05-30T16:18:54.730Z,210
2016-05-30T16:19:54.452Z,215
2016-05-30T16:20:54.565Z,210
2016-05-30T16:21:54.551Z,205
2016-05-30T16:22:55.960Z,200
2016-05-30T16:23:56.993Z,200
2016-05-30T16:24:58.294Z,200
2016-05-30T16:25:55.843Z,195
2016-05-30T16:26:54.549Z,185
2016-05-30T16:27:54.693Z,175
2016-05-30T16:28:54.539Z,175
2016-05-30T16:29:54.353Z,175
2016-05-30T16:30:54.653Z,170
2016-05-30T16:31:54.672Z,165
2016-05-30T16:32:54.675Z,165
2016-05-30T16:33:54.661Z,180
2016-05-30T16:34:54.524Z,180
2016-05-30T16:35:54.511Z,185
2016-05-30T16:36:54.638Z,185
2016-05-30T16:37:54.500Z,190
2016-05-30T16:38:58.222Z,195
2016-05-30T16:39:58.366Z,240
2016-05-30T16:40:56.664Z,360
2016-05-30T16:41:54.621Z,510
2016-05-30T16:42:54.482Z,675
2016-05-30T16:43:54.658Z,650
2016-05-30T16:44:54.613Z,695
2016-05-30T16:45:54.491Z,640
2016-05-30T16:46:54.477Z,635
2016-05-30T16:47:54.512Z,590
2016-05-30T16:48:54.468Z,530
2016-05-30T16:49:54.611Z,520
2016-05-30T16:50:54.613Z,580
2016-05-30T16:51:54.616Z,580
2016-05-30T16:52:55.338Z,525
2016-05-30T16:54:01.887Z,460
2016-05-30T16:54:59.999Z,420
2016-05-30T16:55:58.455Z,410
2016-05-30T16:56:57.052Z,410
2016-05-30T16:57:54.601Z,135
2016-05-30T16:58:54.604Z,120
2016-05-30T16:59:54.434Z,115
2016-05-30T17:00:54.437Z,115
2016-05-30T17:01:54.439Z,115
2016-05-30T17:02:54.584Z,110
2016-05-30T17:03:54.602Z,105
2016-05-30T17:04:54.589Z,100
2016-05-30T17:05:54.607Z,155
2016-05-30T17:06:54.594Z,120
2016-05-30T17:07:54.472Z,95
2016-05-30T17:08:57.021Z,95
2016-05-30T17:10:03.664Z,105
2016-05-30T17:10:55.042Z,105
2016-05-30T17:11:57.514Z,115
2016-05-30T17:12:54.266Z,115
2016-05-30T17:13:54.441Z,105
2016-05-30T17:14:54.444Z,100
2016-05-30T17:15:54.259Z,100
2016-05-30T17:16:54.450Z,100
2016-05-30T17:17:54.124Z,100
2016-05-30T17:18:54.236Z,100
2016-05-30T17:19:54.379Z,95
2016-05-30T17:20:54.538Z,95
2016-05-30T17:21:54.385Z,90
2016-05-30T17:22:54.949Z,80
2016-05-30T17:23:56.155Z,70
2016-05-30T17:24:56.018Z,70
2016-05-30T17:25:54.754Z,60
2016-05-30T17:26:54.507Z,60
2016-05-30T17:27:54.510Z,60
2016-05-30T17:28:54.340Z,60
2016-05-30T17:29:54.156Z,60
2016-05-30T17:30:54.456Z,55
2016-05-30T17:31:54.474Z,55
2016-05-30T17:32:54.461Z,55
2016-05-30T17:33:54.464Z,50
2016-05-30T17:34:54.294Z,50
2016-05-30T17:35:54.297Z,45
2016-05-30T17:36:54.284Z,45
2016-05-30T17:37:54.131Z,50
2016-05-30T17:38:54.275Z,50
2016-05-30T17:39:54.417Z,50
2016-05-30T17:40:54.436Z,50
2016-05-30T17:41:54.438Z,45
2016-05-30T17:42:54.394Z,40
2016-05-30T17:43:54.287Z,40
2016-05-30T17:44:54.071Z,40
2016-05-30T17:45:54.230Z,35
2016-05-30T17:46:54.217Z,35
2016-05-30T17:47:54.377Z,35
2016-05-30T17:48:54.363Z,35
2016-05-30T17:49:54.350Z,30
2016-05-30T17:50:54.353Z,30
2016-05-30T17:51:54.341Z,30
2016-05-30T17:52:54.405Z,30
2016-05-30T17:53:54.799Z,30
2016-05-30T17:54:54.317Z,25
2016-05-30T17:55:54.320Z,25
2016-05-30T17:56:54.025Z,25
2016-05-30T17:57:54.341Z,25
2016-05-30T17:58:54.329Z,20
2016-05-30T17:59:54.299Z,20
2016-05-30T18:00:54.286Z,20
2016-05-30T18:01:56.712Z,20
2016-05-30T18:02:54.275Z,20
2016-05-30T18:03:53.966Z,20
2016-05-30T18:04:54.281Z,20
2016-05-30T18:05:54.097Z,20
2016-05-30T18:06:55.959Z,20
2016-05-30T18:07:54.258Z,20
2016-05-30T18:08:54.245Z,20
2016-05-30T18:09:54.217Z,20
2016-05-30T18:10:54.250Z,20
2016-05-30T18:11:54.206Z,20
2016-05-30T18:12:54.209Z,20
2016-05-30T18:13:54.197Z,25
2016-05-30T18:14:54.183Z,25
2016-05-30T18:15:54.045Z,25
2016-05-30T18:16:54.172Z,25
2016-05-30T18:17:54.020Z,25
2016-05-30T18:18:54.162Z,25
2016-05-30T18:19:54.166Z,20
2016-05-30T18:20:53.980Z,20
2016-05-30T18:21:54.155Z,20
2016-05-30T18:22:54.861Z,20
2016-05-30T18:23:54.129Z,20
2016-05-30T18:24:53.976Z,25
2016-05-30T18:25:54.119Z,25
2016-05-30T18:26:54.107Z,20
2016-05-30T18:27:53.952Z,20
2016-05-30T18:28:54.080Z,20
2016-05-30T18:29:54.083Z,20
2016-05-30T18:30:53.929Z,20
2016-05-30T18:31:54.057Z,20
2016-05-30T18:32:53.904Z,20
2016-05-30T18:33:54.062Z,20
2016-05-30T18:34:53.893Z,20
2016-05-30T18:35:54.037Z,20
2016-05-30T18:36:53.884Z,20
2016-05-30T18:37:54.417Z,20
2016-05-30T18:38:54.013Z,20
2016-05-30T18:39:54.001Z,20
2016-05-30T18:40:54.003Z,20
2016-05-30T18:41:53.989Z,20
2016-05-30T18:42:53.853Z,20
2016-05-30T18:43:53.824Z,20
2016-05-30T18:44:53.967Z,20
2016-05-30T18:45:53.955Z,20
2016-05-30T18:46:53.973Z,15
2016-05-30T18:47:53.960Z,15
2016-05-30T18:48:53.791Z,15
2016-05-30T18:49:53.794Z,15
2016-05-30T18:50:53.764Z,15
2016-05-30T18:51:53.767Z,15
2016-05-30T18:52:54.442Z,15
2016-05-30T18:53:54.163Z,15
2016-05-30T18:54:53.760Z,15
2016-05-30T18:55:53.887Z,15
2016-05-30T18:56:53.890Z,15
2016-05-30T18:57:53.720Z,15
2016-05-30T18:58:53.707Z,15
2016-05-30T18:59:53.868Z,15
2016-05-30T19:00:53.870Z,15
2016-05-30T19:01:53.841Z,10
2016-05-30T19:02:53.828Z,10
2016-05-30T19:03:53.815Z,10
2016-05-30T19:04:53.817Z,10
2016-05-30T19:05:53.820Z,10
2016-05-30T19:06:53.792Z,10
2016-05-30T19:07:53.639Z,10
2016-05-30T19:08:53.844Z,10
2016-05-30T19:09:53.628Z,5
2016-05-30T19:10:53.600Z,5
2016-05-30T19:11:53.617Z,5
2016-05-30T19:12:53.606Z,5
2016-05-30T19:13:53.592Z,5
2016-05-30T19:14:53.751Z,5
2016-05-30T19:15:53.723Z,5
2016-05-30T19:16:53.725Z,5
2016-05-30T19:17:53.696Z,5
2016-05-30T19:18:53.699Z,5
2016-05-30T19:19:53.717Z,5
2016-05-30T19:20:53.674Z,5
2016-05-30T19:21:53.677Z,5
2016-05-30T19:22:54.819Z,0
2016-05-30T19:23:53.666Z,0
2016-05-30T19:24:53.638Z,0
2016-05-30T19:25:53.672Z,0
2016-05-30T19:26:53.486Z,0
2016-05-30T19:27:53.660Z,0
2016-05-30T19:28:53.617Z,0
2016-05-30T19:29:53.463Z,0
2016-05-30T19:30:53.293Z,0
2016-05-30T19:31:53.438Z,0
2016-05-30T19:32:53.581Z,0
2016-05-30T19:33:53.584Z,0
2016-05-30T19:34:53.570Z,0
2016-05-30T19:35:58.964Z,0
2016-05-30T19:36:53.560Z,0
2016-05-30T19:37:54.219Z,0
2016-05-30T19:38:53.238Z,0
2016-05-30T19:39:53.381Z,0
2016-05-30T19:40:53.509Z,0
2016-05-30T19:41:53.511Z,0
2016-05-30T19:42:53.498Z,0
2016-05-30T19:43:53.501Z,0
2016-05-30T19:44:53.316Z,0
2016-05-30T19:45:53.475Z,0
2016-05-30T19:46:53.461Z,0
2016-05-30T19:47:53.465Z,0
2016-05-30T19:48:53.452Z,0
2016-05-30T19:49:53.455Z,0
2016-05-30T19:50:53.426Z,0
2016-05-30T19:51:53.257Z,0
2016-05-30T19:52:54.275Z,0
2016-05-30T19:53:53.419Z,0
2016-05-30T19:54:53.233Z,0
2016-05-30T19:55:53.408Z,0
2016-05-30T19:56:53.223Z,0
2016-05-30T19:57:53.211Z,0
2016-05-30T19:58:53.213Z,0
2016-05-30T19:59:53.199Z,0
2016-05-30T20:00:53.359Z,0
2016-05-30T20:01:56.596Z,0
2016-05-30T20:02:53.162Z,0
2016-05-30T20:03:53.320Z,0
2016-05-30T20:04:53.292Z,0
2016-05-30T20:05:53.295Z,0
2016-05-30T20:06:53.297Z,0
2016-05-30T20:07:54.050Z,0
2016-05-30T20:08:53.115Z,0
2016-05-30T20:09:53.274Z,0
2016-05-30T20:10:53.245Z,0
2016-05-30T20:11:53.264Z,0
2016-05-30T20:12:53.235Z,0
2016-05-30T20:13:52.910Z,0
2016-05-30T20:14:53.209Z,0
2016-05-30T20:15:53.071Z,0
2016-05-30T20:16:53.058Z,0
2016-05-30T20:17:53.218Z,0
2016-05-30T20:18:53.205Z,0
2016-05-30T20:19:53.269Z,0
2016-05-30T20:20:53.225Z,0
2016-05-30T20:21:53.009Z,0
2016-05-30T20:22:53.590Z,0
2016-05-30T20:23:53.000Z,0
2016-05-30T20:24:52.986Z,0
2016-05-30T20:25:53.113Z,0
2016-05-30T20:26:52.960Z,0
2016-05-30T20:27:52.947Z,0
2016-05-30T20:28:53.091Z,0
2016-05-30T20:29:52.921Z,0
2016-05-30T20:30:53.081Z,0
2016-05-30T20:31:52.911Z,0
2016-05-30T20:32:53.055Z,0
2016-05-30T20:33:53.041Z,0
2016-05-30T20:34:53.029Z,0
2016-05-30T20:35:53.031Z,0
2016-05-30T20:36:53.003Z,0
2016-05-30T20:37:53.115Z,0
2016-05-30T20:38:53.446Z,0
2016-05-30T20:39:52.839Z,0
2016-05-30T20:40:52.826Z,0
2016-05-30T20:41:52.829Z,0
2016-05-30T20:42:52.957Z,0
2016-05-30T20:43:52.943Z,0
2016-05-30T20:44:52.931Z,0
2016-05-30T20:45:52.933Z,0
2016-05-30T20:46:52.920Z,0
2016-05-30T20:47:52.908Z,0
2016-05-30T20:48:53.379Z,0
2016-05-30T20:49:52.773Z,0
2016-05-30T20:50:52.886Z,0
2016-05-30T20:51:52.909Z,0
2016-05-30T20:52:52.778Z,0
2016-05-30T20:53:52.927Z,0
2016-05-30T20:54:52.935Z,0
2016-05-30T20:55:52.943Z,0
2016-05-30T20:56:52.939Z,0
2016-05-30T20:57:52.777Z,0
2016-05-30T20:58:52.929Z,0
2016-05-30T20:59:52.923Z,0
2016-05-30T21:00:52.949Z,0
2016-05-30T21:01:52.924Z,0
2016-05-30T21:02:52.930Z,0
2016-05-30T21:03:52.919Z,0
2016-05-30T21:04:52.924Z,0
2016-05-30T21:05:52.758Z,0
2016-05-30T21:06:52.886Z,0
2016-05-30T21:07:52.766Z,0
2016-05-30T21:08:52.925Z,0
2016-05-30T21:09:52.867Z,0
2016-05-30T21:10:52.715Z,0
2016-05-30T21:11:52.702Z,0
2016-05-30T21:12:52.674Z,0
2016-05-30T21:13:52.817Z,0
2016-05-30T21:14:52.836Z,0
2016-05-30T21:15:52.808Z,0
2016-05-30T21:16:52.498Z,0
2016-05-30T21:17:52.814Z,0
2016-05-30T21:18:52.800Z,0
2016-05-30T21:19:52.631Z,0
2016-05-30T21:20:52.775Z,0
2016-05-30T21:21:52.762Z,0
2016-05-30T21:22:53.139Z,0
2016-05-30T21:23:52.611Z,0
2016-05-30T21:24:52.801Z,0
2016-05-30T21:25:52.757Z,0
2016-05-30T21:26:52.791Z,0
2016-05-30T21:27:52.543Z,0
2016-05-30T21:28:52.546Z,0
2016-05-30T21:29:52.690Z,0
2016-05-30T21:30:52.535Z,0
2016-05-30T21:31:52.680Z,0
2016-05-30T21:32:52.604Z,0
2016-05-30T21:33:52.637Z,0
2016-05-30T21:34:52.625Z,0
2016-05-30T21:35:52.315Z,0
2016-05-30T21:36:52.724Z,0
2016-05-30T21:37:53.742Z,0
2016-05-30T21:38:52.432Z,0
2016-05-30T21:39:52.638Z,0
2016-05-30T21:40:52.282Z,0
2016-05-30T21:41:52.566Z,0
2016-05-30T21:42:52.412Z,0
2016-05-30T21:43:52.539Z,0
2016-05-30T21:44:52.558Z,0
2016-05-30T21:45:52.514Z,0
2016-05-30T21:46:52.517Z,0
2016-05-30T21:47:52.347Z,0
2016-05-30T21:48:52.491Z,0
2016-05-30T21:49:52.322Z,0
2016-05-30T21:50:52.480Z,0
2016-05-30T21:51:52.452Z,0
2016-05-30T21:52:53.080Z,0
2016-05-30T21:53:52.442Z,0
2016-05-30T21:54:52.444Z,0
2016-05-30T21:55:52.447Z,0
2016-05-30T21:56:52.418Z,0
2016-05-30T21:57:52.421Z,0
2016-05-30T21:58:52.393Z,0
2016-05-30T21:59:52.396Z,0
2016-05-30T22:00:52.085Z,0
2016-05-30T22:01:52.354Z,0
2016-05-30T22:02:52.356Z,0
2016-05-30T22:03:52.343Z,0
2016-05-30T22:04:52.330Z,0
2016-05-30T22:05:52.332Z,0
2016-05-30T22:06:52.164Z,0
2016-05-30T22:07:53.276Z,0
2016-05-30T22:08:52.295Z,0
2016-05-30T22:09:52.282Z,0
2016-05-30T22:10:52.128Z,0
2016-05-30T22:11:52.271Z,0
2016-05-30T22:12:52.259Z,0
2016-05-30T22:13:52.104Z,0
2016-05-30T22:14:52.091Z,0
2016-05-30T22:15:52.079Z,0
2016-05-30T22:16:52.237Z,0
2016-05-30T22:17:52.225Z,0
2016-05-30T22:18:52.211Z,0
2016-05-30T22:19:52.199Z,0
2016-05-30T22:20:52.264Z,0
2016-05-30T22:21:52.016Z,0
2016-05-30T22:22:52.004Z,0
2016-05-30T22:23:52.147Z,0
2016-05-30T22:24:51.977Z,0
2016-05-30T22:25:52.152Z,0
2016-05-30T22:26:52.125Z,0
2016-05-30T22:27:52.096Z,0
2016-05-30T22:28:52.098Z,0
2016-05-30T22:29:52.101Z,0
2016-05-30T22:30:51.947Z,0
2016-05-30T22:31:52.059Z,0
2016-05-30T22:32:51.921Z,0
2016-05-30T22:33:52.049Z,0
2016-05-30T22:34:52.020Z,0
2016-05-30T22:35:52.054Z,0
2016-05-30T22:36:52.041Z,0
2016-05-30T22:37:53.248Z,0
2016-05-30T22:38:52.016Z,0
2016-05-30T22:39:51.846Z,0
2016-05-30T22:40:51.818Z,0
2016-05-30T22:41:51.962Z,0
2016-05-30T22:42:51.792Z,0
2016-05-30T22:43:51.967Z,0
2016-05-30T22:44:51.922Z,0
2016-05-30T22:45:51.926Z,0
2016-05-30T22:46:52.115Z,0
2016-05-30T22:47:51.742Z,0
2016-05-30T22:48:51.886Z,0
2016-05-30T22:49:51.873Z,0
2016-05-30T22:50:51.861Z,0
2016-05-30T22:51:51.863Z,0
2016-05-30T22:52:52.131Z,0
2016-05-30T22:53:51.681Z,0
2016-05-30T22:54:51.825Z,0
2016-05-30T22:55:51.656Z,0
2016-05-30T22:56:51.658Z,0
2016-05-30T22:57:51.645Z,0
2016-05-30T22:58:51.788Z,0
2016-05-30T22:59:51.775Z,0
2016-05-30T23:00:51.778Z,0
2016-05-30T23:01:51.594Z,0
2016-05-30T23:02:51.752Z,0
2016-05-30T23:03:51.723Z,0
2016-05-30T23:04:51.570Z,0
2016-05-30T23:05:51.713Z,0
2016-05-30T23:06:51.560Z,0
2016-05-30T23:07:51.875Z,0
2016-05-30T23:08:51.721Z,0
2016-05-30T23:09:51.677Z,0
2016-05-30T23:10:51.665Z,0
2016-05-30T23:11:51.651Z,0
2016-05-30T23:12:51.638Z,0
2016-05-30T23:13:51.626Z,0
2016-05-30T23:14:51.628Z,0
2016-05-30T23:15:51.600Z,0
2016-05-30T23:16:51.617Z,0
2016-05-30T23:17:51.606Z,0
2016-05-30T23:18:51.576Z,0
2016-05-30T23:19:51.439Z,0
2016-05-30T23:20:51.551Z,0
2016-05-30T23:21:51.553Z,0
2016-05-30T23:22:51.336Z,0
2016-05-30T23:23:51.527Z,0
2016-05-30T23:24:51.515Z,0
2016-05-30T23:25:51.517Z,0
2016-05-30T23:26:51.488Z,0
2016-05-30T23:27:51.476Z,0
2016-05-30T23:28:51.478Z,0
2016-05-30T23:29:51.153Z,0
2016-05-30T23:30:51.468Z,0
2016-05-30T23:31:51.283Z,0
2016-05-30T23:32:51.458Z,0
2016-05-30T23:33:51.258Z,0
2016-05-30T23:34:51.416Z,0
2016-05-30T23:35:51.403Z,0
2016-05-30T23:36:51.234Z,0
2016-05-30T23:37:51.238Z,0
2016-05-30T23:38:51.208Z,0
2016-05-30T23:39:51.351Z,0
2016-05-30T23:40:51.182Z,0
2016-05-30T23:41:51.185Z,0
2016-05-30T23:42:51.187Z,0
2016-05-30T23:43:51.316Z,0
2016-05-30T23:44:51.303Z,0
2016-05-30T23:45:51.305Z,0
2016-05-30T23:46:51.168Z,0
2016-05-30T23:47:51.279Z,0
2016-05-30T23:48:51.267Z,0
2016-05-30T23:49:51.098Z,0
2016-05-30T23:50:51.240Z,0
2016-05-30T23:51:51.228Z,0
2016-05-30T23:52:51.480Z,0
2016-05-30T23:53:51.202Z,0
2016-05-30T23:54:51.189Z,0
2016-05-30T23:55:51.191Z,0
2016-05-30T23:56:51.038Z,0
2016-05-30T23:57:51.166Z,0
2016-05-30T23:58:51.011Z,0
2016-05-30T23:59:51.172Z,0
